sensor_id;sensor_type;location;lat;lon;timestamp;pressure;altitude;pressure_sealevel;temperature
48003;BMP280;33768;48.578;11.574;2023-07-02T00:02:08;95865.50;;;17.75
48003;BMP280;33768;48.578;11.574;2023-07-02T00:05:12;95862.44;;;17.71
48003;BMP280;33768;48.578;11.574;2023-07-02T00:08:16;95864.63;;;17.73
48003;BMP280;33768;48.578;11.574;2023-07-02T00:11:20;95859.69;;;17.71
48003;BMP280;33768;48.578;11.574;2023-07-02T00:14:24;95862.59;;;17.83
48003;BMP280;33768;48.578;11.574;2023-07-02T00:17:28;95868.97;;;17.85
48003;BMP280;33768;48.578;11.574;2023-07-02T00:20:33;95868.97;;;17.85
48003;BMP280;33768;48.578;11.574;2023-07-02T00:23:41;95868.50;;;17.88
48003;BMP280;33768;48.578;11.574;2023-07-02T00:26:45;95870.56;;;17.88
48003;BMP280;33768;48.578;11.574;2023-07-02T00:29:52;95876.47;;;17.94
48003;BMP280;33768;48.578;11.574;2023-07-02T00:32:56;95873.00;;;17.93
48003;BMP280;33768;48.578;11.574;2023-07-02T00:36:00;95881.44;;;17.95
48003;BMP280;33768;48.578;11.574;2023-07-02T00:39:04;95875.19;;;17.95
48003;BMP280;33768;48.578;11.574;2023-07-02T00:42:08;95865.72;;;17.98
48003;BMP280;33768;48.578;11.574;2023-07-02T00:45:15;95867.34;;;17.91
48003;BMP280;33768;48.578;11.574;2023-07-02T00:48:19;95877.81;;;17.84
48003;BMP280;33768;48.578;11.574;2023-07-02T00:51:25;95866.06;;;17.83
48003;BMP280;33768;48.578;11.574;2023-07-02T00:54:30;95888.16;;;17.83
48003;BMP280;33768;48.578;11.574;2023-07-02T00:57:35;95886.25;;;17.85
48003;BMP280;33768;48.578;11.574;2023-07-02T01:00:39;95892.63;;;17.88
48003;BMP280;33768;48.578;11.574;2023-07-02T01:04:09;95880.16;;;17.87
48003;BMP280;33768;48.578;11.574;2023-07-02T01:07:16;95889.41;;;17.91
48003;BMP280;33768;48.578;11.574;2023-07-02T01:10:20;95886.81;;;17.93
48003;BMP280;33768;48.578;11.574;2023-07-02T01:13:25;95885.78;;;17.89
48003;BMP280;33768;48.578;11.574;2023-07-02T01:16:30;95880.88;;;17.87
48003;BMP280;33768;48.578;11.574;2023-07-02T01:19:45;95881.28;;;17.93
48003;BMP280;33768;48.578;11.574;2023-07-02T01:22:55;95884.66;;;17.92
48003;BMP280;33768;48.578;11.574;2023-07-02T01:25:59;95894.69;;;17.87
48003;BMP280;33768;48.578;11.574;2023-07-02T01:29:16;95888.44;;;17.87
48003;BMP280;33768;48.578;11.574;2023-07-02T01:32:21;95882.16;;;17.86
48003;BMP280;33768;48.578;11.574;2023-07-02T01:35:25;95890.03;;;17.81
48003;BMP280;33768;48.578;11.574;2023-07-02T01:38:29;95880.75;;;17.76
48003;BMP280;33768;48.578;11.574;2023-07-02T01:41:41;95882.06;;;17.75
48003;BMP280;33768;48.578;11.574;2023-07-02T01:44:48;95887.88;;;17.79
48003;BMP280;33768;48.578;11.574;2023-07-02T01:47:53;95885.13;;;17.79
48003;BMP280;33768;48.578;11.574;2023-07-02T01:50:57;95878.72;;;17.77
48003;BMP280;33768;48.578;11.574;2023-07-02T01:54:01;95891.34;;;17.80
48003;BMP280;33768;48.578;11.574;2023-07-02T01:57:05;95894.25;;;17.82
48003;BMP280;33768;48.578;11.574;2023-07-02T02:00:10;95892.78;;;17.81
48003;BMP280;33768;48.578;11.574;2023-07-02T02:03:22;95895.13;;;17.84
48003;BMP280;33768;48.578;11.574;2023-07-02T02:06:27;95896.84;;;17.89
48003;BMP280;33768;48.578;11.574;2023-07-02T02:09:31;95910.06;;;17.90
48003;BMP280;33768;48.578;11.574;2023-07-02T02:12:36;95928.53;;;17.79
48003;BMP280;33768;48.578;11.574;2023-07-02T02:15:44;95930.19;;;17.44
48003;BMP280;33768;48.578;11.574;2023-07-02T02:18:48;95948.47;;;17.12
48003;BMP280;33768;48.578;11.574;2023-07-02T02:21:55;95929.66;;;16.82
48003;BMP280;33768;48.578;11.574;2023-07-02T02:24:59;95925.00;;;16.66
48003;BMP280;33768;48.578;11.574;2023-07-02T02:28:04;95924.81;;;16.55
48003;BMP280;33768;48.578;11.574;2023-07-02T02:31:08;95909.56;;;16.44
48003;BMP280;33768;48.578;11.574;2023-07-02T02:34:13;95916.50;;;16.36
48003;BMP280;33768;48.578;11.574;2023-07-02T02:37:18;95920.84;;;16.39
48003;BMP280;33768;48.578;11.574;2023-07-02T02:40:22;95930.56;;;16.40
48003;BMP280;33768;48.578;11.574;2023-07-02T02:43:26;95932.03;;;16.41
48003;BMP280;33768;48.578;11.574;2023-07-02T02:46:31;95922.75;;;16.46
48003;BMP280;33768;48.578;11.574;2023-07-02T02:49:37;95929.44;;;16.52
48003;BMP280;33768;48.578;11.574;2023-07-02T02:52:42;95942.06;;;16.55
48003;BMP280;33768;48.578;11.574;2023-07-02T02:55:46;95942.16;;;16.48
48003;BMP280;33768;48.578;11.574;2023-07-02T02:58:50;95936.66;;;16.48
48003;BMP280;33768;48.578;11.574;2023-07-02T03:01:55;95944.63;;;16.44
48003;BMP280;33768;48.578;11.574;2023-07-02T03:04:59;95951.44;;;16.43
48003;BMP280;33768;48.578;11.574;2023-07-02T03:08:05;95945.69;;;16.48
48003;BMP280;33768;48.578;11.574;2023-07-02T03:11:10;95943.38;;;16.54
48003;BMP280;33768;48.578;11.574;2023-07-02T03:14:14;95946.56;;;16.60
48003;BMP280;33768;48.578;11.574;2023-07-02T03:17:19;95937.44;;;16.58
48003;BMP280;33768;48.578;11.574;2023-07-02T03:20:23;95939.63;;;16.59
48003;BMP280;33768;48.578;11.574;2023-07-02T03:23:28;95944.69;;;16.62
48003;BMP280;33768;48.578;11.574;2023-07-02T03:26:31;95952.94;;;16.62
48003;BMP280;33768;48.578;11.574;2023-07-02T03:29:36;95949.19;;;16.67
48003;BMP280;33768;48.578;11.574;2023-07-02T03:32:41;95952.09;;;16.69
48003;BMP280;33768;48.578;11.574;2023-07-02T03:35:45;95962.25;;;16.67
48003;BMP280;33768;48.578;11.574;2023-07-02T03:38:50;95957.75;;;16.62
48003;BMP280;33768;48.578;11.574;2023-07-02T03:41:54;95975.84;;;16.56
48003;BMP280;33768;48.578;11.574;2023-07-02T03:44:58;95972.81;;;16.61
48003;BMP280;33768;48.578;11.574;2023-07-02T03:48:02;95972.22;;;16.53
48003;BMP280;33768;48.578;11.574;2023-07-02T03:51:07;95978.72;;;16.48
48003;BMP280;33768;48.578;11.574;2023-07-02T03:54:11;95974.94;;;16.44
48003;BMP280;33768;48.578;11.574;2023-07-02T03:57:15;95977.25;;;16.38
48003;BMP280;33768;48.578;11.574;2023-07-02T04:00:19;95974.59;;;16.30
48003;BMP280;33768;48.578;11.574;2023-07-02T04:03:23;95978.63;;;16.29
48003;BMP280;33768;48.578;11.574;2023-07-02T04:06:28;95981.44;;;16.39
48003;BMP280;33768;48.578;11.574;2023-07-02T04:09:32;95989.75;;;16.48
48003;BMP280;33768;48.578;11.574;2023-07-02T04:12:36;95998.19;;;16.59
48003;BMP280;33768;48.578;11.574;2023-07-02T04:15:41;95997.50;;;16.68
48003;BMP280;33768;48.578;11.574;2023-07-02T04:18:45;95988.09;;;16.71
48003;BMP280;33768;48.578;11.574;2023-07-02T04:21:49;95996.50;;;16.73
48003;BMP280;33768;48.578;11.574;2023-07-02T04:24:53;95994.50;;;16.83
48003;BMP280;33768;48.578;11.574;2023-07-02T04:27:57;95992.34;;;16.91
48003;BMP280;33768;48.578;11.574;2023-07-02T04:31:02;95992.78;;;16.97
48003;BMP280;33768;48.578;11.574;2023-07-02T04:34:06;95991.47;;;16.98
48003;BMP280;33768;48.578;11.574;2023-07-02T04:37:10;95999.19;;;16.99
48003;BMP280;33768;48.578;11.574;2023-07-02T04:40:15;95997.31;;;17.02
48003;BMP280;33768;48.578;11.574;2023-07-02T04:43:19;95997.16;;;17.00
48003;BMP280;33768;48.578;11.574;2023-07-02T04:46:23;96006.84;;;16.91
48003;BMP280;33768;48.578;11.574;2023-07-02T04:49:27;96005.53;;;16.92
48003;BMP280;33768;48.578;11.574;2023-07-02T04:52:32;96003.22;;;16.89
48003;BMP280;33768;48.578;11.574;2023-07-02T04:55:36;96002.63;;;16.90
48003;BMP280;33768;48.578;11.574;2023-07-02T04:58:40;96006.31;;;17.02
48003;BMP280;33768;48.578;11.574;2023-07-02T05:01:45;96010.88;;;17.17
48003;BMP280;33768;48.578;11.574;2023-07-02T05:04:49;96013.38;;;17.31
48003;BMP280;33768;48.578;11.574;2023-07-02T05:07:54;96022.06;;;17.37
48003;BMP280;33768;48.578;11.574;2023-07-02T05:10:58;96033.25;;;17.39
48003;BMP280;33768;48.578;11.574;2023-07-02T05:14:02;96032.25;;;17.44
48003;BMP280;33768;48.578;11.574;2023-07-02T05:17:06;96032.69;;;17.59
48003;BMP280;33768;48.578;11.574;2023-07-02T05:20:11;96034.44;;;17.74
48003;BMP280;33768;48.578;11.574;2023-07-02T05:23:15;96031.81;;;17.94
48003;BMP280;33768;48.578;11.574;2023-07-02T05:26:19;96046.50;;;17.97
48003;BMP280;33768;48.578;11.574;2023-07-02T05:29:23;96037.91;;;17.93
48003;BMP280;33768;48.578;11.574;2023-07-02T05:32:28;96046.22;;;17.74
48003;BMP280;33768;48.578;11.574;2023-07-02T05:35:32;96038.81;;;17.77
48003;BMP280;33768;48.578;11.574;2023-07-02T05:38:36;96049.25;;;17.69
48003;BMP280;33768;48.578;11.574;2023-07-02T05:41:40;96051.28;;;17.59
48003;BMP280;33768;48.578;11.574;2023-07-02T05:44:44;96054.03;;;17.50
48003;BMP280;33768;48.578;11.574;2023-07-02T05:47:49;96043.88;;;17.52
48003;BMP280;33768;48.578;11.574;2023-07-02T05:50:53;96052.16;;;17.52
48003;BMP280;33768;48.578;11.574;2023-07-02T05:53:58;96051.13;;;17.57
48003;BMP280;33768;48.578;11.574;2023-07-02T05:57:02;96055.66;;;17.62
48003;BMP280;33768;48.578;11.574;2023-07-02T06:00:07;96053.75;;;17.64
48003;BMP280;33768;48.578;11.574;2023-07-02T06:03:17;96062.75;;;17.65
48003;BMP280;33768;48.578;11.574;2023-07-02T06:06:24;96060.56;;;17.54
48003;BMP280;33768;48.578;11.574;2023-07-02T06:09:28;96072.75;;;17.51
48003;BMP280;33768;48.578;11.574;2023-07-02T06:12:32;96080.31;;;17.41
48003;BMP280;33768;48.578;11.574;2023-07-02T06:15:36;96081.59;;;17.40
48003;BMP280;33768;48.578;11.574;2023-07-02T06:18:40;96087.28;;;17.42
48003;BMP280;33768;48.578;11.574;2023-07-02T06:21:45;96096.53;;;17.37
48003;BMP280;33768;48.578;11.574;2023-07-02T06:24:49;96101.22;;;17.44
48003;BMP280;33768;48.578;11.574;2023-07-02T06:27:53;96091.50;;;17.53
48003;BMP280;33768;48.578;11.574;2023-07-02T06:30:59;96103.84;;;17.61
48003;BMP280;33768;48.578;11.574;2023-07-02T06:34:03;96098.63;;;17.65
48003;BMP280;33768;48.578;11.574;2023-07-02T06:37:07;96102.41;;;17.60
48003;BMP280;33768;48.578;11.574;2023-07-02T06:40:12;96090.78;;;17.52
48003;BMP280;33768;48.578;11.574;2023-07-02T06:43:16;96102.53;;;17.53
48003;BMP280;33768;48.578;11.574;2023-07-02T06:46:20;96095.28;;;17.57
48003;BMP280;33768;48.578;11.574;2023-07-02T06:49:24;96107.59;;;17.56
48003;BMP280;33768;48.578;11.574;2023-07-02T06:52:29;96116.44;;;17.45
48003;BMP280;33768;48.578;11.574;2023-07-02T06:55:33;96124.56;;;17.34
48003;BMP280;33768;48.578;11.574;2023-07-02T06:58:39;96123.69;;;17.31
48003;BMP280;33768;48.578;11.574;2023-07-02T07:01:44;96121.94;;;17.36
48003;BMP280;33768;48.578;11.574;2023-07-02T07:04:48;96129.25;;;17.50
48003;BMP280;33768;48.578;11.574;2023-07-02T07:07:52;96141.59;;;17.49
48003;BMP280;33768;48.578;11.574;2023-07-02T07:10:56;96145.19;;;17.42
48003;BMP280;33768;48.578;11.574;2023-07-02T07:14:00;96137.06;;;17.44
48003;BMP280;33768;48.578;11.574;2023-07-02T07:17:04;96141.69;;;17.32
48003;BMP280;33768;48.578;11.574;2023-07-02T07:20:09;96136.00;;;17.21
48003;BMP280;33768;48.578;11.574;2023-07-02T07:23:15;96141.28;;;17.10
48003;BMP280;33768;48.578;11.574;2023-07-02T07:26:19;96147.16;;;16.97
48003;BMP280;33768;48.578;11.574;2023-07-02T07:29:23;96145.28;;;16.99
48003;BMP280;33768;48.578;11.574;2023-07-02T07:32:28;96153.72;;;17.01
48003;BMP280;33768;48.578;11.574;2023-07-02T07:35:32;96151.09;;;17.03
48003;BMP280;33768;48.578;11.574;2023-07-02T07:38:36;96155.38;;;16.88
48003;BMP280;33768;48.578;11.574;2023-07-02T07:41:41;96166.50;;;16.80
48003;BMP280;33768;48.578;11.574;2023-07-02T07:44:46;96171.75;;;16.59
48003;BMP280;33768;48.578;11.574;2023-07-02T07:47:50;96174.38;;;16.41
48003;BMP280;33768;48.578;11.574;2023-07-02T07:50:54;96181.75;;;16.38
48003;BMP280;33768;48.578;11.574;2023-07-02T07:53:58;96182.06;;;16.42
48003;BMP280;33768;48.578;11.574;2023-07-02T07:57:06;96186.22;;;16.34
48003;BMP280;33768;48.578;11.574;2023-07-02T08:00:11;96181.50;;;16.27
48003;BMP280;33768;48.578;11.574;2023-07-02T08:03:22;96170.66;;;16.29
48003;BMP280;33768;48.578;11.574;2023-07-02T08:06:26;96168.13;;;16.40
48003;BMP280;33768;48.578;11.574;2023-07-02T08:09:31;96151.41;;;16.55
48003;BMP280;33768;48.578;11.574;2023-07-02T08:12:35;96153.34;;;16.62
48003;BMP280;33768;48.578;11.574;2023-07-02T08:15:39;96156.44;;;16.92
48003;BMP280;33768;48.578;11.574;2023-07-02T08:18:44;96150.06;;;17.25
48003;BMP280;33768;48.578;11.574;2023-07-02T08:21:48;96151.09;;;17.84
48003;BMP280;33768;48.578;11.574;2023-07-02T08:24:52;96141.25;;;18.55
48003;BMP280;33768;48.578;11.574;2023-07-02T08:27:56;96142.00;;;19.14
48003;BMP280;33768;48.578;11.574;2023-07-02T08:31:01;96142.19;;;19.67
48003;BMP280;33768;48.578;11.574;2023-07-02T08:34:05;96139.31;;;20.59
48003;BMP280;33768;48.578;11.574;2023-07-02T08:37:09;96144.78;;;20.68
48003;BMP280;33768;48.578;11.574;2023-07-02T08:40:17;96154.41;;;20.99
48003;BMP280;33768;48.578;11.574;2023-07-02T08:43:23;96163.00;;;21.14
48003;BMP280;33768;48.578;11.574;2023-07-02T08:46:29;96154.13;;;21.50
48003;BMP280;33768;48.578;11.574;2023-07-02T08:49:33;96157.00;;;21.74
48003;BMP280;33768;48.578;11.574;2023-07-02T08:52:37;96158.22;;;21.71
48003;BMP280;33768;48.578;11.574;2023-07-02T08:55:42;96148.38;;;21.14
48003;BMP280;33768;48.578;11.574;2023-07-02T08:58:46;96150.94;;;20.67
48003;BMP280;33768;48.578;11.574;2023-07-02T09:01:52;96150.72;;;20.53
48003;BMP280;33768;48.578;11.574;2023-07-02T09:05:00;96152.75;;;20.41
48003;BMP280;33768;48.578;11.574;2023-07-02T09:08:04;96146.44;;;20.30
48003;BMP280;33768;48.578;11.574;2023-07-02T09:11:14;96152.31;;;20.88
48003;BMP280;33768;48.578;11.574;2023-07-02T09:14:30;96145.63;;;22.76
48003;BMP280;33768;48.578;11.574;2023-07-02T09:17:36;96137.47;;;22.92
48003;BMP280;33768;48.578;11.574;2023-07-02T09:20:40;96143.84;;;22.69
48003;BMP280;33768;48.578;11.574;2023-07-02T09:23:44;96142.41;;;22.68
48003;BMP280;33768;48.578;11.574;2023-07-02T09:26:56;96145.81;;;22.80
48003;BMP280;33768;48.578;11.574;2023-07-02T09:30:12;96126.78;;;23.64
48003;BMP280;33768;48.578;11.574;2023-07-02T09:33:20;96121.41;;;25.07
48003;BMP280;33768;48.578;11.574;2023-07-02T09:36:24;96123.59;;;25.84
48003;BMP280;33768;48.578;11.574;2023-07-02T09:39:30;96125.63;;;25.99
48003;BMP280;33768;48.578;11.574;2023-07-02T09:42:35;96129.34;;;25.12
48003;BMP280;33768;48.578;11.574;2023-07-02T09:45:47;96129.84;;;24.65
48003;BMP280;33768;48.578;11.574;2023-07-02T09:48:50;96123.25;;;25.31
48003;BMP280;33768;48.578;11.574;2023-07-02T09:51:54;96122.28;;;26.35
48003;BMP280;33768;48.578;11.574;2023-07-02T09:54:59;96120.16;;;25.86
48003;BMP280;33768;48.578;11.574;2023-07-02T09:58:03;96119.94;;;24.90
48003;BMP280;33768;48.578;11.574;2023-07-02T10:01:07;96124.56;;;24.42
48003;BMP280;33768;48.578;11.574;2023-07-02T10:04:13;96115.59;;;24.17
48003;BMP280;33768;48.578;11.574;2023-07-02T10:07:31;96114.91;;;23.63
48003;BMP280;33768;48.578;11.574;2023-07-02T10:10:37;96124.63;;;23.89
48003;BMP280;33768;48.578;11.574;2023-07-02T10:13:41;96113.25;;;24.53
48003;BMP280;33768;48.578;11.574;2023-07-02T10:16:55;96104.22;;;25.27
48003;BMP280;33768;48.578;11.574;2023-07-02T10:20:04;96119.88;;;25.80
48003;BMP280;33768;48.578;11.574;2023-07-02T10:23:16;96111.44;;;26.60
48003;BMP280;33768;48.578;11.574;2023-07-02T10:26:20;96102.28;;;27.29
48003;BMP280;33768;48.578;11.574;2023-07-02T10:29:26;96102.72;;;26.52
48003;BMP280;33768;48.578;11.574;2023-07-02T10:32:31;96102.78;;;25.57
48003;BMP280;33768;48.578;11.574;2023-07-02T10:35:37;96115.81;;;24.63
48003;BMP280;33768;48.578;11.574;2023-07-02T10:38:41;96113.56;;;23.91
48003;BMP280;33768;48.578;11.574;2023-07-02T10:41:45;96102.28;;;24.86
48003;BMP280;33768;48.578;11.574;2023-07-02T10:44:51;96104.03;;;25.69
48003;BMP280;33768;48.578;11.574;2023-07-02T10:47:56;96099.22;;;26.69
48003;BMP280;33768;48.578;11.574;2023-07-02T10:51:10;96086.91;;;27.47
48003;BMP280;33768;48.578;11.574;2023-07-02T10:54:15;96086.81;;;26.91
48003;BMP280;33768;48.578;11.574;2023-07-02T10:57:19;96088.63;;;26.16
48003;BMP280;33768;48.578;11.574;2023-07-02T11:00:26;96082.66;;;25.91
48003;BMP280;33768;48.578;11.574;2023-07-02T11:03:30;96089.34;;;26.16
48003;BMP280;33768;48.578;11.574;2023-07-02T11:06:35;96085.78;;;26.48
48003;BMP280;33768;48.578;11.574;2023-07-02T11:09:39;96067.25;;;26.07
48003;BMP280;33768;48.578;11.574;2023-07-02T11:12:43;96079.41;;;25.81
48003;BMP280;33768;48.578;11.574;2023-07-02T11:15:47;96077.59;;;26.20
48003;BMP280;33768;48.578;11.574;2023-07-02T11:19:08;96066.53;;;27.46
48003;BMP280;33768;48.578;11.574;2023-07-02T11:22:12;96063.69;;;27.44
48003;BMP280;33768;48.578;11.574;2023-07-02T11:25:18;96067.84;;;27.63
48003;BMP280;33768;48.578;11.574;2023-07-02T11:28:29;96049.22;;;28.96
48003;BMP280;33768;48.578;11.574;2023-07-02T11:31:33;96050.06;;;29.97
48003;BMP280;33768;48.578;11.574;2023-07-02T11:34:38;96054.97;;;29.23
48003;BMP280;33768;48.578;11.574;2023-07-02T11:37:43;96056.66;;;29.09
48003;BMP280;33768;48.578;11.574;2023-07-02T11:40:47;96047.69;;;28.49
48003;BMP280;33768;48.578;11.574;2023-07-02T11:43:52;96056.16;;;28.08
48003;BMP280;33768;48.578;11.574;2023-07-02T11:46:57;96055.56;;;29.20
48003;BMP280;33768;48.578;11.574;2023-07-02T11:50:00;96040.81;;;29.67
48003;BMP280;33768;48.578;11.574;2023-07-02T11:53:04;96044.72;;;30.34
48003;BMP280;33768;48.578;11.574;2023-07-02T11:56:09;96044.91;;;29.39
48003;BMP280;33768;48.578;11.574;2023-07-02T11:59:13;96041.19;;;29.56
48003;BMP280;33768;48.578;11.574;2023-07-02T12:02:18;96047.38;;;29.27
48003;BMP280;33768;48.578;11.574;2023-07-02T12:05:22;96037.06;;;28.03
48003;BMP280;33768;48.578;11.574;2023-07-02T12:08:26;96044.66;;;27.24
48003;BMP280;33768;48.578;11.574;2023-07-02T12:11:30;96045.94;;;27.02
48003;BMP280;33768;48.578;11.574;2023-07-02T12:14:34;96040.50;;;26.88
48003;BMP280;33768;48.578;11.574;2023-07-02T12:17:38;96037.53;;;27.57
48003;BMP280;33768;48.578;11.574;2023-07-02T12:20:43;96031.25;;;28.39
48003;BMP280;33768;48.578;11.574;2023-07-02T12:23:47;96030.41;;;28.14
48003;BMP280;33768;48.578;11.574;2023-07-02T12:26:51;96052.69;;;27.14
48003;BMP280;33768;48.578;11.574;2023-07-02T12:29:56;96039.41;;;26.61
48003;BMP280;33768;48.578;11.574;2023-07-02T12:33:00;96046.84;;;26.37
48003;BMP280;33768;48.578;11.574;2023-07-02T12:36:04;96037.13;;;26.06
48003;BMP280;33768;48.578;11.574;2023-07-02T12:39:08;96040.03;;;25.75
48003;BMP280;33768;48.578;11.574;2023-07-02T12:42:12;96039.34;;;25.59
48003;BMP280;33768;48.578;11.574;2023-07-02T12:45:16;96031.44;;;25.23
48003;BMP280;33768;48.578;11.574;2023-07-02T12:48:20;96046.03;;;25.22
48003;BMP280;33768;48.578;11.574;2023-07-02T12:51:25;96035.91;;;26.43
48003;BMP280;33768;48.578;11.574;2023-07-02T12:54:29;96017.53;;;27.67
48003;BMP280;33768;48.578;11.574;2023-07-02T12:57:33;96001.38;;;28.48
48003;BMP280;33768;48.578;11.574;2023-07-02T13:00:38;96019.13;;;27.52
48003;BMP280;33768;48.578;11.574;2023-07-02T13:03:46;96021.34;;;26.64
48003;BMP280;33768;48.578;11.574;2023-07-02T13:06:50;96022.66;;;25.94
48003;BMP280;33768;48.578;11.574;2023-07-02T13:09:55;96034.91;;;25.70
48003;BMP280;33768;48.578;11.574;2023-07-02T13:12:59;96020.88;;;25.85
48003;BMP280;33768;48.578;11.574;2023-07-02T13:16:03;96025.81;;;25.69
48003;BMP280;33768;48.578;11.574;2023-07-02T13:19:08;96018.44;;;26.10
48003;BMP280;33768;48.578;11.574;2023-07-02T13:22:12;96020.13;;;26.86
48003;BMP280;33768;48.578;11.574;2023-07-02T13:25:16;96022.28;;;26.70
48003;BMP280;33768;48.578;11.574;2023-07-02T13:28:20;96003.19;;;27.37
48003;BMP280;33768;48.578;11.574;2023-07-02T13:31:25;96011.88;;;26.90
48003;BMP280;33768;48.578;11.574;2023-07-02T13:34:29;96019.25;;;26.64
48003;BMP280;33768;48.578;11.574;2023-07-02T13:37:33;96026.06;;;26.25
48003;BMP280;33768;48.578;11.574;2023-07-02T13:40:37;96018.84;;;25.70
48003;BMP280;33768;48.578;11.574;2023-07-02T13:43:41;96019.22;;;25.63
48003;BMP280;33768;48.578;11.574;2023-07-02T13:46:46;96012.06;;;25.75
48003;BMP280;33768;48.578;11.574;2023-07-02T13:49:51;96013.13;;;26.16
48003;BMP280;33768;48.578;11.574;2023-07-02T13:52:56;96013.59;;;26.79
48003;BMP280;33768;48.578;11.574;2023-07-02T13:56:00;96002.81;;;27.28
48003;BMP280;33768;48.578;11.574;2023-07-02T13:59:04;96006.66;;;28.17
48003;BMP280;33768;48.578;11.574;2023-07-02T14:02:09;96010.66;;;28.10
48003;BMP280;33768;48.578;11.574;2023-07-02T14:05:13;96013.16;;;27.42
48003;BMP280;33768;48.578;11.574;2023-07-02T14:08:17;96020.13;;;26.69
48003;BMP280;33768;48.578;11.574;2023-07-02T14:11:23;96030.56;;;26.49
48003;BMP280;33768;48.578;11.574;2023-07-02T14:14:27;96020.31;;;26.38
48003;BMP280;33768;48.578;11.574;2023-07-02T14:17:31;96017.81;;;26.63
48003;BMP280;33768;48.578;11.574;2023-07-02T14:20:35;96006.75;;;27.02
48003;BMP280;33768;48.578;11.574;2023-07-02T14:23:39;96000.69;;;27.86
48003;BMP280;33768;48.578;11.574;2023-07-02T14:26:43;95985.44;;;28.12
48003;BMP280;33768;48.578;11.574;2023-07-02T14:29:48;95989.91;;;27.78
48003;BMP280;33768;48.578;11.574;2023-07-02T14:32:52;96007.91;;;27.33
48003;BMP280;33768;48.578;11.574;2023-07-02T14:35:57;95996.72;;;27.52
48003;BMP280;33768;48.578;11.574;2023-07-02T14:39:01;95996.03;;;27.73
48003;BMP280;33768;48.578;11.574;2023-07-02T14:42:05;95994.91;;;27.41
48003;BMP280;33768;48.578;11.574;2023-07-02T14:45:11;95997.00;;;27.22
48003;BMP280;33768;48.578;11.574;2023-07-02T14:48:15;96006.25;;;27.07
48003;BMP280;33768;48.578;11.574;2023-07-02T14:51:20;95992.06;;;27.39
48003;BMP280;33768;48.578;11.574;2023-07-02T14:54:24;96006.22;;;27.26
48003;BMP280;33768;48.578;11.574;2023-07-02T14:57:28;95990.66;;;27.60
48003;BMP280;33768;48.578;11.574;2023-07-02T15:00:32;96006.38;;;27.11
48003;BMP280;33768;48.578;11.574;2023-07-02T15:03:37;96001.28;;;26.69
48003;BMP280;33768;48.578;11.574;2023-07-02T15:06:41;96002.97;;;26.95
48003;BMP280;33768;48.578;11.574;2023-07-02T15:09:45;95999.84;;;27.04
48003;BMP280;33768;48.578;11.574;2023-07-02T15:12:49;95987.22;;;27.23
48003;BMP280;33768;48.578;11.574;2023-07-02T15:15:54;95986.34;;;27.57
48003;BMP280;33768;48.578;11.574;2023-07-02T15:18:58;95996.28;;;27.60
48003;BMP280;33768;48.578;11.574;2023-07-02T15:22:02;95988.66;;;27.43
48003;BMP280;33768;48.578;11.574;2023-07-02T15:25:07;95999.63;;;27.18
48003;BMP280;33768;48.578;11.574;2023-07-02T15:28:11;96003.97;;;26.84
48003;BMP280;33768;48.578;11.574;2023-07-02T15:31:15;96000.38;;;26.65
48003;BMP280;33768;48.578;11.574;2023-07-02T15:34:19;95999.69;;;26.64
48003;BMP280;33768;48.578;11.574;2023-07-02T15:37:23;95996.72;;;26.60
48003;BMP280;33768;48.578;11.574;2023-07-02T15:40:28;95998.31;;;26.31
48003;BMP280;33768;48.578;11.574;2023-07-02T15:43:32;96002.19;;;26.22
48003;BMP280;33768;48.578;11.574;2023-07-02T15:46:37;95992.09;;;26.32
48003;BMP280;33768;48.578;11.574;2023-07-02T15:49:42;95997.53;;;26.28
48003;BMP280;33768;48.578;11.574;2023-07-02T15:52:46;95992.41;;;26.23
48003;BMP280;33768;48.578;11.574;2023-07-02T15:55:54;95987.22;;;26.15
48003;BMP280;33768;48.578;11.574;2023-07-02T15:59:00;95992.63;;;25.94
48003;BMP280;33768;48.578;11.574;2023-07-02T16:02:04;95997.47;;;25.77
48003;BMP280;33768;48.578;11.574;2023-07-02T16:05:10;95987.97;;;25.66
48003;BMP280;33768;48.578;11.574;2023-07-02T16:08:14;95996.19;;;25.32
48003;BMP280;33768;48.578;11.574;2023-07-02T16:11:19;96002.00;;;24.90
48003;BMP280;33768;48.578;11.574;2023-07-02T16:14:23;96005.28;;;24.71
48003;BMP280;33768;48.578;11.574;2023-07-02T16:17:27;96004.00;;;24.59
48003;BMP280;33768;48.578;11.574;2023-07-02T16:20:31;95994.66;;;24.52
48003;BMP280;33768;48.578;11.574;2023-07-02T16:23:36;95996.28;;;24.57
48003;BMP280;33768;48.578;11.574;2023-07-02T16:26:41;95993.03;;;24.63
48003;BMP280;33768;48.578;11.574;2023-07-02T16:29:45;95994.22;;;24.58
48003;BMP280;33768;48.578;11.574;2023-07-02T16:32:51;95992.84;;;24.59
48003;BMP280;33768;48.578;11.574;2023-07-02T16:35:55;95992.88;;;24.74
48003;BMP280;33768;48.578;11.574;2023-07-02T16:38:59;95991.53;;;24.75
48003;BMP280;33768;48.578;11.574;2023-07-02T16:42:03;95996.91;;;24.71
48003;BMP280;33768;48.578;11.574;2023-07-02T16:45:08;95992.72;;;24.85
48003;BMP280;33768;48.578;11.574;2023-07-02T16:48:12;96000.63;;;24.76
48003;BMP280;33768;48.578;11.574;2023-07-02T16:51:16;96002.59;;;24.58
48003;BMP280;33768;48.578;11.574;2023-07-02T16:54:22;96003.75;;;24.53
48003;BMP280;33768;48.578;11.574;2023-07-02T16:57:26;95997.91;;;24.47
48003;BMP280;33768;48.578;11.574;2023-07-02T17:00:30;96006.81;;;24.59
48003;BMP280;33768;48.578;11.574;2023-07-02T17:03:35;96000.22;;;24.52
48003;BMP280;33768;48.578;11.574;2023-07-02T17:06:41;96007.31;;;24.40
48003;BMP280;33768;48.578;11.574;2023-07-02T17:09:45;96011.09;;;24.18
48003;BMP280;33768;48.578;11.574;2023-07-02T17:12:50;96002.28;;;23.95
48003;BMP280;33768;48.578;11.574;2023-07-02T17:15:54;96010.91;;;23.72
48003;BMP280;33768;48.578;11.574;2023-07-02T17:19:01;96007.00;;;23.51
48003;BMP280;33768;48.578;11.574;2023-07-02T17:22:08;96012.28;;;23.31
48003;BMP280;33768;48.578;11.574;2023-07-02T17:25:12;96007.75;;;23.11
48003;BMP280;33768;48.578;11.574;2023-07-02T17:28:16;96003.31;;;23.06
48003;BMP280;33768;48.578;11.574;2023-07-02T17:31:21;96005.25;;;23.17